sensor_id;sensor_type;location;lat;lon;timestamp;pressure;altitude;pressure_sealevel;temperature;humidity
6532;BME280;3299;42.004;24.868;2023-04-08T00:01:06;98395.38;;;7.89;80.97
6532;BME280;3299;42.004;24.868;2023-04-08T00:03:32;98331.00;;;7.46;80.90
6532;BME280;3299;42.004;24.868;2023-04-08T00:05:57;98366.34;;;7.72;81.40
6532;BME280;3299;42.004;24.868;2023-04-08T00:08:24;98400.97;;;7.82;81.48
6532;BME280;3299;42.004;24.868;2023-04-08T00:10:50;98403.19;;;7.58;83.45
6532;BME280;3299;42.004;24.868;2023-04-08T00:13:15;98327.13;;;6.94;84.53
6532;BME280;3299;42.004;24.868;2023-04-08T00:15:41;98413.94;;;7.51;84.13
6532;BME280;3299;42.004;24.868;2023-04-08T00:18:06;98378.44;;;7.26;84.22
6532;BME280;3299;42.004;24.868;2023-04-08T00:20:32;98411.44;;;7.49;84.25
6532;BME280;3299;42.004;24.868;2023-04-08T00:22:57;98427.72;;;7.50;83.35
6532;BME280;3299;42.004;24.868;2023-04-08T00:25:23;98402.91;;;7.33;83.63
6532;BME280;3299;42.004;24.868;2023-04-08T00:27:48;98421.81;;;7.48;83.92
6532;BME280;3299;42.004;24.868;2023-04-08T00:30:14;98418.03;;;7.39;83.69
6532;BME280;3299;42.004;24.868;2023-04-08T00:32:40;98391.66;;;7.20;83.84
6532;BME280;3299;42.004;24.868;2023-04-08T00:35:06;98346.06;;;6.93;83.50
6532;BME280;3299;42.004;24.868;2023-04-08T00:37:31;98333.03;;;6.80;84.39
6532;BME280;3299;42.004;24.868;2023-04-08T00:39:57;98441.69;;;7.46;84.82
6532;BME280;3299;42.004;24.868;2023-04-08T00:42:22;98425.16;;;7.34;85.46
6532;BME280;3299;42.004;24.868;2023-04-08T00:44:48;98335.84;;;6.76;86.25
6532;BME280;3299;42.004;24.868;2023-04-08T00:47:14;98369.75;;;7.13;85.78
6532;BME280;3299;42.004;24.868;2023-04-08T00:49:41;98422.13;;;7.57;84.74
6532;BME280;3299;42.004;24.868;2023-04-08T00:52:06;98423.38;;;7.66;84.42
6532;BME280;3299;42.004;24.868;2023-04-08T00:54:32;98390.84;;;7.49;84.95
6532;BME280;3299;42.004;24.868;2023-04-08T00:56:58;98435.81;;;7.73;85.81
6532;BME280;3299;42.004;24.868;2023-04-08T00:59:28;98390.44;;;7.57;85.01
6532;BME280;3299;42.004;24.868;2023-04-08T01:02:00;98361.34;;;7.55;83.60
6532;BME280;3299;42.004;24.868;2023-04-08T01:04:55;98442.16;;;8.11;82.62
6532;BME280;3299;42.004;24.868;2023-04-08T01:07:35;98444.28;;;8.19;82.59
6532;BME280;3299;42.004;24.868;2023-04-08T01:10:05;98358.91;;;7.67;82.17
6532;BME280;3299;42.004;24.868;2023-04-08T01:12:36;98361.09;;;7.59;82.68
6532;BME280;3299;42.004;24.868;2023-04-08T01:15:06;98356.84;;;7.58;83.83
6532;BME280;3299;42.004;24.868;2023-04-08T01:17:33;98444.25;;;8.20;83.83
6532;BME280;3299;42.004;24.868;2023-04-08T01:20:02;98462.50;;;8.31;86.55
6532;BME280;3299;42.004;24.868;2023-04-08T01:25:26;98401.66;;;7.99;87.85
6532;BME280;3299;42.004;24.868;2023-04-08T01:27:55;98443.91;;;8.11;90.11
6532;BME280;3299;42.004;24.868;2023-04-08T01:30:22;98434.78;;;8.05;91.45
6532;BME280;3299;42.004;24.868;2023-04-08T01:32:50;98401.47;;;7.88;91.75
6532;BME280;3299;42.004;24.868;2023-04-08T01:35:17;98410.09;;;7.87;92.75
6532;BME280;3299;42.004;24.868;2023-04-08T01:37:43;98383.81;;;7.67;94.03
6532;BME280;3299;42.004;24.868;2023-04-08T01:40:10;98406.84;;;7.84;94.77
6532;BME280;3299;42.004;24.868;2023-04-08T01:42:36;98357.78;;;7.57;95.41
6532;BME280;3299;42.004;24.868;2023-04-08T01:45:02;98389.66;;;7.84;95.14
6532;BME280;3299;42.004;24.868;2023-04-08T01:47:28;98425.94;;;7.95;95.88
6532;BME280;3299;42.004;24.868;2023-04-08T01:49:55;98401.56;;;8.01;92.96
6532;BME280;3299;42.004;24.868;2023-04-08T01:52:22;98403.72;;;7.79;92.71
6532;BME280;3299;42.004;24.868;2023-04-08T01:54:47;98351.53;;;7.32;92.79
6532;BME280;3299;42.004;24.868;2023-04-08T01:57:18;98447.16;;;7.85;92.77
6532;BME280;3299;42.004;24.868;2023-04-08T01:59:49;98408.34;;;7.58;94.45
6532;BME280;3299;42.004;24.868;2023-04-08T02:02:18;98399.72;;;7.59;95.40
6532;BME280;3299;42.004;24.868;2023-04-08T02:04:44;98375.22;;;7.52;95.04
6532;BME280;3299;42.004;24.868;2023-04-08T02:07:10;98393.69;;;7.74;91.92
6532;BME280;3299;42.004;24.868;2023-04-08T02:09:36;98363.63;;;7.45;88.87
6532;BME280;3299;42.004;24.868;2023-04-08T02:12:01;98442.56;;;8.19;86.29
6532;BME280;3299;42.004;24.868;2023-04-08T02:14:27;98450.25;;;8.05;85.57
6532;BME280;3299;42.004;24.868;2023-04-08T02:16:57;98366.19;;;7.45;85.48
6532;BME280;3299;42.004;24.868;2023-04-08T02:19:29;98468.84;;;8.10;84.69
6532;BME280;3299;42.004;24.868;2023-04-08T02:22:04;98428.72;;;7.77;90.71
6532;BME280;3299;42.004;24.868;2023-04-08T02:24:34;98464.81;;;8.06;91.58
6532;BME280;3299;42.004;24.868;2023-04-08T02:27:02;98460.00;;;8.00;98.13
6532;BME280;3299;42.004;24.868;2023-04-08T02:29:30;98460.66;;;8.04;99.89
6532;BME280;3299;42.004;24.868;2023-04-08T02:31:56;98449.38;;;7.91;100.00
6532;BME280;3299;42.004;24.868;2023-04-08T02:34:23;98404.38;;;7.82;100.00
6532;BME280;3299;42.004;24.868;2023-04-08T02:36:49;98407.28;;;8.06;100.00
6532;BME280;3299;42.004;24.868;2023-04-08T02:39:15;98446.56;;;8.09;100.00
6532;BME280;3299;42.004;24.868;2023-04-08T02:41:41;98441.50;;;8.23;100.00
6532;BME280;3299;42.004;24.868;2023-04-08T02:44:06;98460.53;;;8.21;100.00
6532;BME280;3299;42.004;24.868;2023-04-08T02:46:32;98414.63;;;7.98;100.00
6532;BME280;3299;42.004;24.868;2023-04-08T02:48:57;98423.81;;;8.02;100.00
6532;BME280;3299;42.004;24.868;2023-04-08T02:51:23;98450.03;;;8.24;100.00
6532;BME280;3299;42.004;24.868;2023-04-08T02:53:48;98439.63;;;7.96;100.00
6532;BME280;3299;42.004;24.868;2023-04-08T02:56:14;98376.84;;;7.39;100.00
6532;BME280;3299;42.004;24.868;2023-04-08T02:58:39;98461.88;;;8.12;100.00
6532;BME280;3299;42.004;24.868;2023-04-08T03:01:06;98410.09;;;7.87;100.00
6532;BME280;3299;42.004;24.868;2023-04-08T03:03:31;98428.81;;;7.75;100.00
6532;BME280;3299;42.004;24.868;2023-04-08T03:05:57;98443.22;;;7.64;100.00
6532;BME280;3299;42.004;24.868;2023-04-08T03:08:22;98474.22;;;7.62;100.00
6532;BME280;3299;42.004;24.868;2023-04-08T03:10:48;98390.13;;;7.32;100.00
6532;BME280;3299;42.004;24.868;2023-04-08T03:13:14;98447.06;;;7.86;100.00
6532;BME280;3299;42.004;24.868;2023-04-08T03:15:40;98481.84;;;8.09;100.00
6532;BME280;3299;42.004;24.868;2023-04-08T03:18:05;98477.63;;;7.92;100.00
6532;BME280;3299;42.004;24.868;2023-04-08T03:20:31;98475.28;;;7.74;100.00
6532;BME280;3299;42.004;24.868;2023-04-08T03:22:56;98394.28;;;7.34;100.00
6532;BME280;3299;42.004;24.868;2023-04-08T03:25:22;98424.56;;;7.60;100.00
6532;BME280;3299;42.004;24.868;2023-04-08T03:27:47;98398.88;;;7.59;100.00
6532;BME280;3299;42.004;24.868;2023-04-08T03:30:12;98399.31;;;7.51;100.00
6532;BME280;3299;42.004;24.868;2023-04-08T03:32:38;98398.34;;;7.38;100.00
6532;BME280;3299;42.004;24.868;2023-04-08T03:35:04;98490.28;;;7.81;100.00
6532;BME280;3299;42.004;24.868;2023-04-08T03:37:30;98472.25;;;7.81;100.00
6532;BME280;3299;42.004;24.868;2023-04-08T03:39:55;98411.22;;;7.38;100.00
6532;BME280;3299;42.004;24.868;2023-04-08T03:42:21;98431.72;;;7.40;100.00
6532;BME280;3299;42.004;24.868;2023-04-08T03:44:46;98481.09;;;7.46;100.00
6532;BME280;3299;42.004;24.868;2023-04-08T03:47:12;98397.97;;;6.84;100.00
6532;BME280;3299;42.004;24.868;2023-04-08T03:49:37;98401.78;;;6.77;100.00
6532;BME280;3299;42.004;24.868;2023-04-08T03:52:03;98415.38;;;6.94;100.00
6532;BME280;3299;42.004;24.868;2023-04-08T03:54:28;98401.03;;;7.06;100.00
6532;BME280;3299;42.004;24.868;2023-04-08T03:56:54;98476.97;;;7.44;100.00
6532;BME280;3299;42.004;24.868;2023-04-08T03:59:19;98416.41;;;7.07;100.00
6532;BME280;3299;42.004;24.868;2023-04-08T04:01:45;98481.44;;;7.56;99.90
6532;BME280;3299;42.004;24.868;2023-04-08T04:04:11;98482.28;;;7.56;99.49
6532;BME280;3299;42.004;24.868;2023-04-08T04:06:37;98478.84;;;7.56;99.26
6532;BME280;3299;42.004;24.868;2023-04-08T04:09:02;98468.63;;;7.70;98.57
6532;BME280;3299;42.004;24.868;2023-04-08T04:11:28;98502.97;;;8.00;97.31
6532;BME280;3299;42.004;24.868;2023-04-08T04:13:53;98454.00;;;7.70;97.57
6532;BME280;3299;42.004;24.868;2023-04-08T04:16:18;98422.09;;;7.43;97.03
6532;BME280;3299;42.004;24.868;2023-04-08T04:18:44;98429.50;;;7.63;96.61
6532;BME280;3299;42.004;24.868;2023-04-08T04:21:09;98416.75;;;7.46;96.37
6532;BME280;3299;42.004;24.868;2023-04-08T04:23:34;98452.22;;;7.57;97.11
6532;BME280;3299;42.004;24.868;2023-04-08T04:26:00;98452.34;;;7.69;97.04
6532;BME280;3299;42.004;24.868;2023-04-08T04:28:25;98415.63;;;7.36;97.61
6532;BME280;3299;42.004;24.868;2023-04-08T04:30:51;98472.44;;;7.78;97.68
6532;BME280;3299;42.004;24.868;2023-04-08T04:33:16;98425.66;;;7.70;95.68
6532;BME280;3299;42.004;24.868;2023-04-08T04:35:42;98512.19;;;8.33;94.58
6532;BME280;3299;42.004;24.868;2023-04-08T04:38:08;98512.50;;;8.43;93.02
6532;BME280;3299;42.004;24.868;2023-04-08T04:40:39;98511.41;;;8.61;92.14
6532;BME280;3299;42.004;24.868;2023-04-08T04:43:05;98422.53;;;8.24;89.49
6532;BME280;3299;42.004;24.868;2023-04-08T04:45:30;98419.75;;;8.27;89.14
6532;BME280;3299;42.004;24.868;2023-04-08T04:47:56;98450.91;;;8.52;90.08
6532;BME280;3299;42.004;24.868;2023-04-08T04:50:21;98444.44;;;8.45;91.17
6532;BME280;3299;42.004;24.868;2023-04-08T04:52:46;98478.34;;;8.67;91.75
6532;BME280;3299;42.004;24.868;2023-04-08T04:55:12;98516.34;;;8.93;92.22
6532;BME280;3299;42.004;24.868;2023-04-08T04:57:39;98506.81;;;8.94;91.88
6532;BME280;3299;42.004;24.868;2023-04-08T05:00:06;98474.66;;;8.57;92.54
6532;BME280;3299;42.004;24.868;2023-04-08T05:02:32;98436.25;;;8.39;91.75
6532;BME280;3299;42.004;24.868;2023-04-08T05:04:57;98521.94;;;8.72;91.68
6532;BME280;3299;42.004;24.868;2023-04-08T05:07:24;98461.41;;;8.35;92.16
6532;BME280;3299;42.004;24.868;2023-04-08T05:09:49;98506.72;;;8.67;92.43
6532;BME280;3299;42.004;24.868;2023-04-08T05:12:15;98515.78;;;8.88;92.17
6532;BME280;3299;42.004;24.868;2023-04-08T05:14:40;98488.13;;;8.76;91.13
6532;BME280;3299;42.004;24.868;2023-04-08T05:17:06;98478.53;;;8.78;91.01
6532;BME280;3299;42.004;24.868;2023-04-08T05:19:31;98485.25;;;8.95;91.22
6532;BME280;3299;42.004;24.868;2023-04-08T05:21:57;98475.69;;;8.97;92.30
6532;BME280;3299;42.004;24.868;2023-04-08T05:24:22;98530.66;;;9.39;94.49
6532;BME280;3299;42.004;24.868;2023-04-08T05:26:48;98477.06;;;9.16;96.58
6532;BME280;3299;42.004;24.868;2023-04-08T05:29:16;98470.59;;;9.09;99.72
6532;BME280;3299;42.004;24.868;2023-04-08T05:31:43;98492.88;;;9.24;100.00
6532;BME280;3299;42.004;24.868;2023-04-08T05:34:09;98549.34;;;9.57;100.00
6532;BME280;3299;42.004;24.868;2023-04-08T05:36:35;98529.00;;;9.52;100.00
6532;BME280;3299;42.004;24.868;2023-04-08T05:39:00;98466.88;;;9.27;100.00
6532;BME280;3299;42.004;24.868;2023-04-08T05:41:26;98488.97;;;9.45;100.00
6532;BME280;3299;42.004;24.868;2023-04-08T05:43:51;98536.75;;;9.78;100.00
6532;BME280;3299;42.004;24.868;2023-04-08T05:46:16;98530.44;;;9.56;100.00
6532;BME280;3299;42.004;24.868;2023-04-08T05:48:42;98507.25;;;9.42;100.00
6532;BME280;3299;42.004;24.868;2023-04-08T05:51:12;98477.00;;;9.30;100.00
6532;BME280;3299;42.004;24.868;2023-04-08T05:53:38;98471.75;;;9.32;100.00
6532;BME280;3299;42.004;24.868;2023-04-08T05:56:03;98457.84;;;9.34;100.00
6532;BME280;3299;42.004;24.868;2023-04-08T05:58:29;98495.25;;;9.41;100.00
6532;BME280;3299;42.004;24.868;2023-04-08T06:00:54;98468.94;;;9.22;100.00
6532;BME280;3299;42.004;24.868;2023-04-08T06:03:20;98466.56;;;9.05;100.00
6532;BME280;3299;42.004;24.868;2023-04-08T06:05:46;98468.66;;;9.13;100.00
6532;BME280;3299;42.004;24.868;2023-04-08T06:08:11;98456.75;;;9.24;100.00
6532;BME280;3299;42.004;24.868;2023-04-08T06:10:38;98545.56;;;9.88;100.00
6532;BME280;3299;42.004;24.868;2023-04-08T06:13:03;98491.84;;;9.67;100.00
6532;BME280;3299;42.004;24.868;2023-04-08T06:15:29;98531.63;;;9.91;100.00
6532;BME280;3299;42.004;24.868;2023-04-08T06:17:54;98545.81;;;10.12;100.00
6532;BME280;3299;42.004;24.868;2023-04-08T06:20:20;98477.50;;;9.63;100.00
6532;BME280;3299;42.004;24.868;2023-04-08T06:22:45;98546.06;;;9.81;100.00
6532;BME280;3299;42.004;24.868;2023-04-08T06:25:11;98510.66;;;9.43;100.00
6532;BME280;3299;42.004;24.868;2023-04-08T06:27:36;98522.75;;;9.28;100.00
6532;BME280;3299;42.004;24.868;2023-04-08T06:30:02;98513.16;;;9.30;100.00
6532;BME280;3299;42.004;24.868;2023-04-08T06:32:27;98467.84;;;8.98;100.00
6532;BME280;3299;42.004;24.868;2023-04-08T06:34:52;98465.63;;;9.06;100.00
6532;BME280;3299;42.004;24.868;2023-04-08T06:37:18;98472.53;;;9.06;100.00
6532;BME280;3299;42.004;24.868;2023-04-08T06:39:43;98472.91;;;9.14;100.00
6532;BME280;3299;42.004;24.868;2023-04-08T06:42:08;98462.59;;;9.14;100.00
6532;BME280;3299;42.004;24.868;2023-04-08T06:44:34;98467.63;;;9.15;100.00
6532;BME280;3299;42.004;24.868;2023-04-08T06:47:00;98475.63;;;9.25;100.00
6532;BME280;3299;42.004;24.868;2023-04-08T06:49:25;98513.97;;;9.71;100.00
6532;BME280;3299;42.004;24.868;2023-04-08T06:51:51;98551.28;;;10.07;100.00
6532;BME280;3299;42.004;24.868;2023-04-08T06:54:17;98526.28;;;9.94;100.00
6532;BME280;3299;42.004;24.868;2023-04-08T06:56:42;98563.31;;;10.21;100.00
6532;BME280;3299;42.004;24.868;2023-04-08T06:59:07;98490.28;;;9.91;100.00
6532;BME280;3299;42.004;24.868;2023-04-08T07:01:33;98545.03;;;10.36;99.84
6532;BME280;3299;42.004;24.868;2023-04-08T07:03:58;98473.81;;;9.79;98.76
6532;BME280;3299;42.004;24.868;2023-04-08T07:06:26;98516.97;;;9.91;100.00
6532;BME280;3299;42.004;24.868;2023-04-08T07:08:51;98518.28;;;9.84;100.00
6532;BME280;3299;42.004;24.868;2023-04-08T07:11:16;98551.38;;;10.06;100.00
6532;BME280;3299;42.004;24.868;2023-04-08T07:13:42;98470.63;;;9.62;99.75
6532;BME280;3299;42.004;24.868;2023-04-08T07:16:07;98476.97;;;9.70;99.85
6532;BME280;3299;42.004;24.868;2023-04-08T07:18:33;98476.97;;;9.70;100.00
6532;BME280;3299;42.004;24.868;2023-04-08T07:20:58;98547.06;;;10.19;99.08
6532;BME280;3299;42.004;24.868;2023-04-08T07:23:25;98486.81;;;9.78;98.97
6532;BME280;3299;42.004;24.868;2023-04-08T07:25:50;98556.38;;;10.21;99.01
6532;BME280;3299;42.004;24.868;2023-04-08T07:28:16;98571.72;;;10.37;98.68
6532;BME280;3299;42.004;24.868;2023-04-08T07:30:42;98491.19;;;10.16;97.99
6532;BME280;3299;42.004;24.868;2023-04-08T07:33:07;98561.66;;;10.84;95.13
6532;BME280;3299;42.004;24.868;2023-04-08T07:35:33;98560.91;;;11.07;92.70
6532;BME280;3299;42.004;24.868;2023-04-08T07:38:00;98523.75;;;11.08;91.08
6532;BME280;3299;42.004;24.868;2023-04-08T07:40:26;98495.19;;;10.97;89.63
6532;BME280;3299;42.004;24.868;2023-04-08T07:42:51;98568.66;;;11.44;88.64
6532;BME280;3299;42.004;24.868;2023-04-08T07:45:17;98565.75;;;11.49;87.78
6532;BME280;3299;42.004;24.868;2023-04-08T07:47:43;98537.25;;;11.49;87.21
6532;BME280;3299;42.004;24.868;2023-04-08T07:50:08;98561.84;;;11.79;86.38
6532;BME280;3299;42.004;24.868;2023-04-08T07:52:34;98558.72;;;11.87;84.18
6532;BME280;3299;42.004;24.868;2023-04-08T07:54:59;98568.59;;;11.82;83.56
6532;BME280;3299;42.004;24.868;2023-04-08T07:57:26;98539.81;;;11.74;84.57
6532;BME280;3299;42.004;24.868;2023-04-08T07:59:51;98510.34;;;11.75;83.61
6532;BME280;3299;42.004;24.868;2023-04-08T08:02:16;98565.72;;;11.97;81.17
6532;BME280;3299;42.004;24.868;2023-04-08T08:04:42;98502.75;;;11.36;82.01
6532;BME280;3299;42.004;24.868;2023-04-08T08:07:08;98552.59;;;11.64;83.13
6532;BME280;3299;42.004;24.868;2023-04-08T08:09:33;98537.34;;;11.47;83.01
6532;BME280;3299;42.004;24.868;2023-04-08T08:11:59;98488.50;;;11.30;84.15
6532;BME280;3299;42.004;24.868;2023-04-08T08:14:24;98542.28;;;11.75;84.45
6532;BME280;3299;42.004;24.868;2023-04-08T08:16:51;98566.13;;;12.04;82.57
6532;BME280;3299;42.004;24.868;2023-04-08T08:19:16;98535.94;;;12.03;78.87
6532;BME280;3299;42.004;24.868;2023-04-08T08:21:42;98544.28;;;12.19;78.62
6532;BME280;3299;42.004;24.868;2023-04-08T08:24:07;98561.00;;;12.49;79.01
6532;BME280;3299;42.004;24.868;2023-04-08T08:26:35;98512.28;;;12.42;78.07
6532;BME280;3299;42.004;24.868;2023-04-08T08:29:01;98522.38;;;12.34;78.43
6532;BME280;3299;42.004;24.868;2023-04-08T08:31:26;98557.72;;;12.24;77.99
6532;BME280;3299;42.004;24.868;2023-04-08T08:33:52;98574.53;;;12.31;75.05
6532;BME280;3299;42.004;24.868;2023-04-08T08:36:17;98570.03;;;12.33;76.40
6532;BME280;3299;42.004;24.868;2023-04-08T08:38:43;98492.34;;;12.08;75.76
6532;BME280;3299;42.004;24.868;2023-04-08T08:41:08;98494.19;;;12.29;73.59
6532;BME280;3299;42.004;24.868;2023-04-08T08:43:33;98557.44;;;12.85;72.44
6532;BME280;3299;42.004;24.868;2023-04-08T08:45:59;98572.31;;;12.94;69.86
6532;BME280;3299;42.004;24.868;2023-04-08T08:48:25;98575.44;;;12.99;67.80
6532;BME280;3299;42.004;24.868;2023-04-08T08:50:51;98539.25;;;12.74;68.95
6532;BME280;3299;42.004;24.868;2023-04-08T08:53:16;98489.91;;;12.63;69.99
6532;BME280;3299;42.004;24.868;2023-04-08T08:55:43;98565.31;;;13.18;69.82
6532;BME280;3299;42.004;24.868;2023-04-08T08:58:09;98561.75;;;13.08;70.74
6532;BME280;3299;42.004;24.868;2023-04-08T09:00:36;98537.63;;;12.95;69.80
6532;BME280;3299;42.004;24.868;2023-04-08T09:03:21;98575.94;;;13.15;70.62
6532;BME280;3299;42.004;24.868;2023-04-08T09:08:31;98495.13;;;12.85;71.51
6532;BME280;3299;42.004;24.868;2023-04-08T09:11:13;98522.25;;;12.81;71.54
6532;BME280;3299;42.004;24.868;2023-04-08T09:13:40;98512.59;;;12.83;72.19
6532;BME280;3299;42.004;24.868;2023-04-08T09:16:07;98565.78;;;13.23;72.71
6532;BME280;3299;42.004;24.868;2023-04-08T09:18:33;98519.50;;;13.06;72.87
6532;BME280;3299;42.004;24.868;2023-04-08T09:21:00;98515.59;;;13.11;72.18
6532;BME280;3299;42.004;24.868;2023-04-08T09:26:13;98584.22;;;13.64;71.96
6532;BME280;3299;42.004;24.868;2023-04-08T09:28:40;98525.88;;;13.35;72.44
6532;BME280;3299;42.004;24.868;2023-04-08T09:31:25;98568.00;;;13.71;72.14
6532;BME280;3299;42.004;24.868;2023-04-08T09:33:53;98497.88;;;13.27;70.77
6532;BME280;3299;42.004;24.868;2023-04-08T09:36:20;98557.97;;;13.56;71.71
6532;BME280;3299;42.004;24.868;2023-04-08T09:38:46;98569.03;;;13.80;71.40
6532;BME280;3299;42.004;24.868;2023-04-08T09:41:14;98522.63;;;13.64;70.55
6532;BME280;3299;42.004;24.868;2023-04-08T09:43:47;98515.19;;;13.71;70.05
6532;BME280;3299;42.004;24.868;2023-04-08T09:46:18;98540.72;;;13.66;70.23
6532;BME280;3299;42.004;24.868;2023-04-08T09:48:49;98554.88;;;13.84;70.16
6532;BME280;3299;42.004;24.868;2023-04-08T09:51:21;98471.41;;;13.33;70.47
6532;BME280;3299;42.004;24.868;2023-04-08T09:53:54;98549.84;;;13.49;70.59
6532;BME280;3299;42.004;24.868;2023-04-08T09:56:21;98528.94;;;13.18;70.45
6532;BME280;3299;42.004;24.868;2023-04-08T09:59:02;98568.84;;;13.61;69.45
6532;BME280;3299;42.004;24.868;2023-04-08T10:01:37;98486.66;;;13.05;69.92
6532;BME280;3299;42.004;24.868;2023-04-08T10:04:07;98513.94;;;13.10;70.17
6532;BME280;3299;42.004;24.868;2023-04-08T10:06:34;98544.50;;;13.40;70.10
6532;BME280;3299;42.004;24.868;2023-04-08T10:09:01;98484.63;;;13.19;70.07
6532;BME280;3299;42.004;24.868;2023-04-08T10:11:29;98517.69;;;13.61;68.86
6532;BME280;3299;42.004;24.868;2023-04-08T10:13:55;98551.22;;;13.75;68.41
6532;BME280;3299;42.004;24.868;2023-04-08T10:18:46;98491.63;;;13.30;69.48
6532;BME280;3299;42.004;24.868;2023-04-08T10:21:33;98528.59;;;13.87;68.10
6532;BME280;3299;42.004;24.868;2023-04-08T10:24:00;98481.50;;;13.69;67.69
6532;BME280;3299;42.004;24.868;2023-04-08T10:26:35;98526.94;;;13.86;67.91
6532;BME280;3299;42.004;24.868;2023-04-08T10:31:41;98541.44;;;14.42;66.41
6532;BME280;3299;42.004;24.868;2023-04-08T10:34:16;98456.56;;;13.98;65.33
6532;BME280;3299;42.004;24.868;2023-04-08T10:36:45;98464.44;;;14.08;66.13
6532;BME280;3299;42.004;24.868;2023-04-08T10:39:11;98522.44;;;14.51;65.41
6532;BME280;3299;42.004;24.868;2023-04-08T10:41:44;98459.69;;;14.13;63.73
6532;BME280;3299;42.004;24.868;2023-04-08T10:44:23;98533.19;;;14.57;64.02
6532;BME280;3299;42.004;24.868;2023-04-08T10:46:50;98540.59;;;14.10;65.67
6532;BME280;3299;42.004;24.868;2023-04-08T10:49:16;98495.66;;;13.76;66.18
6532;BME280;3299;42.004;24.868;2023-04-08T10:51:42;98501.19;;;13.83;66.22
6532;BME280;3299;42.004;24.868;2023-04-08T10:54:13;98508.50;;;13.89;66.92
6532;BME280;3299;42.004;24.868;2023-04-08T10:56:46;98530.25;;;13.99;66.35
6532;BME280;3299;42.004;24.868;2023-04-08T10:59:13;98508.75;;;13.86;66.42
6532;BME280;3299;42.004;24.868;2023-04-08T11:01:42;98519.00;;;13.98;66.27
6532;BME280;3299;42.004;24.868;2023-04-08T11:04:16;98465.19;;;13.67;66.58
6532;BME280;3299;42.004;24.868;2023-04-08T11:06:47;98510.16;;;13.90;67.12
6532;BME280;3299;42.004;24.868;2023-04-08T11:09:14;98493.63;;;13.80;67.56
6532;BME280;3299;42.004;24.868;2023-04-08T11:11:42;98479.47;;;13.73;68.10
6532;BME280;3299;42.004;24.868;2023-04-08T11:14:09;98428.25;;;13.53;68.09
6532;BME280;3299;42.004;24.868;2023-04-08T11:16:36;98489.81;;;13.95;67.70
6532;BME280;3299;42.004;24.868;2023-04-08T11:19:03;98499.28;;;14.16;67.43
6532;BME280;3299;42.004;24.868;2023-04-08T11:21:34;98442.69;;;13.77;67.35
6532;BME280;3299;42.004;24.868;2023-04-08T11:24:00;98460.00;;;13.99;67.31
6532;BME280;3299;42.004;24.868;2023-04-08T11:26:30;98456.94;;;14.25;66.59
6532;BME280;3299;42.004;24.868;2023-04-08T11:28:56;98460.56;;;14.34;65.63
6532;BME280;3299;42.004;24.868;2023-04-08T11:31:22;98440.88;;;14.41;65.88
6532;BME280;3299;42.004;24.868;2023-04-08T11:33:48;98450.69;;;14.78;64.47
6532;BME280;3299;42.004;24.868;2023-04-08T11:36:16;98461.50;;;15.04;63.68
6532;BME280;3299;42.004;24.868;2023-04-08T11:38:42;98463.63;;;15.29;64.12
6532;BME280;3299;42.004;24.868;2023-04-08T11:41:08;98413.97;;;15.30;63.43
6532;BME280;3299;42.004;24.868;2023-04-08T11:43:33;98417.19;;;15.62;62.85
6532;BME280;3299;42.004;24.868;2023-04-08T11:46:08;98463.91;;;15.94;61.01
6532;BME280;3299;42.004;24.868;2023-04-08T11:48:33;98481.47;;;16.11;60.47
6532;BME280;3299;42.004;24.868;2023-04-08T11:51:03;98463.91;;;15.94;60.88
6532;BME280;3299;42.004;24.868;2023-04-08T11:53:29;98452.06;;;15.90;60.71
6532;BME280;3299;42.004;24.868;2023-04-08T11:55:54;98393.84;;;15.51;61.22
6532;BME280;3299;42.004;24.868;2023-04-08T11:58:20;98406.75;;;15.43;62.55
6532;BME280;3299;42.004;24.868;2023-04-08T12:00:45;98435.44;;;15.53;61.53
6532;BME280;3299;42.004;24.868;2023-04-08T12:03:12;98429.31;;;15.24;63.58
6532;BME280;3299;42.004;24.868;2023-04-08T12:05:37;98403.31;;;15.03;62.94
6532;BME280;3299;42.004;24.868;2023-04-08T12:08:03;98459.69;;;15.34;64.00
6532;BME280;3299;42.004;24.868;2023-04-08T12:10:29;98405.66;;;14.67;64.84
6532;BME280;3299;42.004;24.868;2023-04-08T12:12:54;98416.47;;;14.62;65.49
6532;BME280;3299;42.004;24.868;2023-04-08T12:15:20;98411.59;;;14.48;66.63
6532;BME280;3299;42.004;24.868;2023-04-08T12:17:45;98383.22;;;14.25;67.15
6532;BME280;3299;42.004;24.868;2023-04-08T12:20:11;98439.53;;;14.26;68.26
6532;BME280;3299;42.004;24.868;2023-04-08T12:22:37;98387.56;;;14.04;68.76
6532;BME280;3299;42.004;24.868;2023-04-08T12:25:03;98411.19;;;14.23;68.63
6532;BME280;3299;42.004;24.868;2023-04-08T12:27:29;98357.06;;;13.85;69.17
6532;BME280;3299;42.004;24.868;2023-04-08T12:29:57;98349.78;;;14.00;68.73
6532;BME280;3299;42.004;24.868;2023-04-08T12:32:23;98395.38;;;14.45;68.50
6532;BME280;3299;42.004;24.868;2023-04-08T12:34:50;98415.00;;;14.79;67.68
6532;BME280;3299;42.004;24.868;2023-04-08T12:37:15;98388.00;;;14.80;66.54
6532;BME280;3299;42.004;24.868;2023-04-08T12:39:41;98421.19;;;15.17;65.30
6532;BME280;3299;42.004;24.868;2023-04-08T12:42:06;98343.53;;;14.62;66.29
6532;BME280;3299;42.004;24.868;2023-04-08T12:44:31;98340.94;;;14.62;66.69
6532;BME280;3299;42.004;24.868;2023-04-08T12:46:57;98400.59;;;15.05;66.61
6532;BME280;3299;42.004;24.868;2023-04-08T12:49:23;98359.94;;;14.83;66.29
6532;BME280;3299;42.004;24.868;2023-04-08T12:51:49;98394.28;;;15.07;65.54
6532;BME280;3299;42.004;24.868;2023-04-08T12:54:15;98363.94;;;14.97;65.47
6532;BME280;3299;42.004;24.868;2023-04-08T12:56:41;98338.59;;;14.59;65.11
6532;BME280;3299;42.004;24.868;2023-04-08T12:59:07;98332.28;;;14.62;65.46
6532;BME280;3299;42.004;24.868;2023-04-08T13:01:33;98361.59;;;14.84;65.98
6532;BME280;3299;42.004;24.868;2023-04-08T13:03:59;98329.97;;;14.59;65.93
6532;BME280;3299;42.004;24.868;2023-04-08T13:06:24;98345.94;;;14.75;66.87
6532;BME280;3299;42.004;24.868;2023-04-08T13:08:50;98406.06;;;15.02;67.56
6532;BME280;3299;42.004;24.868;2023-04-08T13:11:16;98400.97;;;15.00;68.94
6532;BME280;3299;42.004;24.868;2023-04-08T13:13:42;98342.88;;;14.70;69.30
6532;BME280;3299;42.004;24.868;2023-04-08T13:16:08;98317.66;;;14.70;68.30
6532;BME280;3299;42.004;24.868;2023-04-08T13:18:33;98402.41;;;15.23;67.91
6532;BME280;3299;42.004;24.868;2023-04-08T13:20:59;98380.44;;;15.16;64.68
6532;BME280;3299;42.004;24.868;2023-04-08T13:23:24;98316.13;;;14.68;63.25
6532;BME280;3299;42.004;24.868;2023-04-08T13:25:50;98391.94;;;15.04;63.75